Sterrenberg, Netherlands
Current Conditions -  °F | °C
As of 4:25 AM on Tuesday 27 Jan 2015 (Local Time) from EHDL Reporting Station
Few Clouds Few Clouds  
Wind Chill: 30°   Ceiling: Unl
Heat Index: 34°   Visibility: 6mi
Dew Point: 32°   Wind: 5mph
Humidity: 93%   Direction: 270°W
Pressure: 30.15"   Gusts: NA
Location:  51.99°N, 5.88°E
Report Text: EHDL 270325Z AUTO 27004KT 9999 FEW024 01/00 Q1021 BLU
Loading
Personal Weather Stations






























Interactive Weather Map New forecast layout! Learn more

10-Day Weather Forecast

Advertisements
Track Severe Weather on mobile